createdAt,value
2023-06-03T00:01:37.492Z,12.38
2023-06-03T00:06:39.049Z,12.50
2023-06-03T00:11:40.724Z,12.65
2023-06-03T00:16:46.547Z,12.70
2023-06-03T00:21:50.463Z,12.56
2023-06-03T00:26:53.677Z,12.49
2023-06-03T00:31:55.467Z,12.55
2023-06-03T00:36:57.542Z,12.54
2023-06-03T00:41:59.430Z,12.53
2023-06-03T00:47:01.075Z,12.56
2023-06-03T00:52:04.212Z,12.62
2023-06-03T00:57:06.829Z,12.53
2023-06-03T01:02:08.407Z,12.44
2023-06-03T01:07:26.872Z,12.36
2023-06-03T01:12:35.135Z,12.27
2023-06-03T01:17:46.752Z,12.21
2023-06-03T01:22:52.765Z,12.27
2023-06-03T01:27:54.328Z,12.15
2023-06-03T01:32:56.283Z,12.00
2023-06-03T01:37:58.297Z,11.90
2023-06-03T01:43:00.662Z,11.77
2023-06-03T01:48:02.571Z,11.68
2023-06-03T01:53:04.280Z,11.69
2023-06-03T01:58:05.980Z,11.70
2023-06-03T02:03:07.756Z,11.65
2023-06-03T02:08:09.337Z,11.60
2023-06-03T02:13:12.125Z,11.58
2023-06-03T02:18:13.710Z,11.54
2023-06-03T02:23:15.487Z,11.49
2023-06-03T02:28:20.907Z,11.38
2023-06-03T02:33:22.415Z,11.25
2023-06-03T02:38:24.545Z,11.14
2023-06-03T02:43:26.139Z,10.96
2023-06-03T02:48:27.784Z,10.82
2023-06-03T02:53:29.390Z,10.62
2023-06-03T02:58:31.091Z,10.52
2023-06-03T03:03:41.937Z,10.38
2023-06-03T03:08:44.048Z,10.33
2023-06-03T03:13:47.717Z,10.20
2023-06-03T03:18:50.778Z,10.03
2023-06-03T03:23:52.669Z,10.00
2023-06-03T03:28:57.354Z,9.90
2023-06-03T03:34:02.902Z,9.85
2023-06-03T03:39:06.529Z,9.86
2023-06-03T03:44:29.364Z,9.90
2023-06-03T03:49:35.415Z,9.97
2023-06-03T03:54:40.785Z,10.01
2023-06-03T03:59:45.953Z,10.07
2023-06-03T04:04:48.304Z,10.13
2023-06-03T04:09:50.190Z,10.20
2023-06-03T04:14:52.457Z,10.37
2023-06-03T04:19:59.783Z,10.44
2023-06-03T04:25:12.390Z,10.68
2023-06-03T04:30:23.285Z,10.83
2023-06-03T04:35:25.107Z,11.00
2023-06-03T04:40:28.242Z,11.25
2023-06-03T04:45:32.383Z,11.45
2023-06-03T04:50:36.894Z,11.66
2023-06-03T04:55:45.204Z,11.87
2023-06-03T05:00:52.325Z,12.07
2023-06-03T05:05:54.208Z,12.26
2023-06-03T05:10:57.909Z,12.45
2023-06-03T05:15:59.543Z,12.64
2023-06-03T05:21:01.131Z,12.92
2023-06-03T05:26:03.614Z,13.12
2023-06-03T05:31:05.496Z,13.34
2023-06-03T05:36:11.789Z,13.65
2023-06-03T05:41:14.105Z,13.72
2023-06-03T05:46:15.864Z,13.82
2023-06-03T05:51:17.653Z,13.99
2023-06-03T05:56:19.342Z,14.12
2023-06-03T06:01:21.987Z,14.39
2023-06-03T06:06:24.458Z,14.55
2023-06-03T06:11:27.936Z,14.74
2023-06-03T06:16:30.014Z,14.96
2023-06-03T06:21:32.369Z,15.19
2023-06-03T06:26:34.972Z,15.31
2023-06-03T06:31:37.483Z,15.52
2023-06-03T06:36:43.886Z,15.75
2023-06-03T06:41:53.751Z,15.79
2023-06-03T06:46:58.735Z,16.03
2023-06-03T06:52:00.722Z,16.32
2023-06-03T06:57:02.904Z,16.42
2023-06-03T07:02:05.180Z,16.63
2023-06-03T07:07:07.101Z,16.90
2023-06-03T07:12:10.468Z,16.99
2023-06-03T07:17:12.595Z,17.15
2023-06-03T07:22:16.353Z,17.44
2023-06-03T07:27:27.546Z,17.52
2023-06-03T07:32:29.343Z,17.52
2023-06-03T07:37:31.192Z,17.75
2023-06-03T07:42:33.153Z,17.88
2023-06-03T07:47:41.604Z,17.92
2023-06-03T07:52:43.220Z,18.14
2023-06-03T07:57:49.994Z,18.39
2023-06-03T08:02:52.541Z,18.83
2023-06-03T08:07:54.338Z,18.68
2023-06-03T08:12:55.864Z,18.87
2023-06-03T08:17:57.572Z,18.95
2023-06-03T08:22:59.249Z,19.09
2023-06-03T08:28:00.853Z,19.16
2023-06-03T08:33:02.410Z,19.41
2023-06-03T08:38:04.015Z,19.61
2023-06-03T08:43:06.570Z,19.76
2023-06-03T08:48:17.849Z,20.00
2023-06-03T08:53:19.926Z,20.36
2023-06-03T08:58:27.532Z,20.34
2023-06-03T09:03:30.943Z,20.17
2023-06-03T09:08:33.055Z,20.64
2023-06-03T09:13:35.464Z,20.78
2023-06-03T09:18:37.926Z,20.70
2023-06-03T09:23:40.967Z,20.94
2023-06-03T09:28:42.654Z,20.95
2023-06-03T09:33:44.267Z,20.98
2023-06-03T09:38:53.670Z,21.08
2023-06-03T09:43:57.270Z,20.86
2023-06-03T09:49:17.322Z,20.94
2023-06-03T09:54:26.848Z,21.31
2023-06-03T09:59:30.971Z,21.38
2023-06-03T10:04:45.718Z,21.55
2023-06-03T10:09:48.364Z,21.99
2023-06-03T10:14:51.087Z,22.38
2023-06-03T10:19:52.653Z,22.45
2023-06-03T10:24:56.447Z,22.34
2023-06-03T10:29:59.862Z,22.32
2023-06-03T10:35:01.739Z,22.53
2023-06-03T10:40:05.754Z,22.42
2023-06-03T10:45:08.413Z,22.55
2023-06-03T10:50:47.492Z,22.54
2023-06-03T10:56:10.802Z,22.69
2023-06-03T11:01:12.370Z,22.60
2023-06-03T11:06:20.091Z,22.57
2023-06-03T11:11:40.608Z,22.46
2023-06-03T11:16:57.561Z,22.40
2023-06-03T11:21:59.834Z,22.56
2023-06-03T11:27:01.723Z,22.56
2023-06-03T11:32:13.739Z,22.62
2023-06-03T11:37:20.642Z,22.98
2023-06-03T11:42:22.397Z,23.05
2023-06-03T11:47:23.928Z,23.04
2023-06-03T11:52:25.822Z,23.03
2023-06-03T11:57:30.625Z,23.04
2023-06-03T12:02:39.463Z,23.15
2023-06-03T12:07:41.480Z,23.36
2023-06-03T12:12:59.066Z,23.45
2023-06-03T12:18:04.532Z,23.67
2023-06-03T12:23:07.114Z,23.84
2023-06-03T12:28:24.124Z,23.64
2023-06-03T12:33:39.421Z,23.84
2023-06-03T12:38:54.599Z,23.92
2023-06-03T12:44:03.815Z,23.97
2023-06-03T12:49:16.128Z,24.01
2023-06-03T12:54:17.703Z,24.20
2023-06-03T12:59:19.646Z,24.39
2023-06-03T13:04:21.191Z,24.38
2023-06-03T13:09:22.710Z,24.49
2023-06-03T13:14:24.582Z,24.78
2023-06-03T13:19:28.243Z,24.62
2023-06-03T13:24:29.762Z,24.77
2023-06-03T13:29:31.297Z,24.85
2023-06-03T13:34:33.243Z,24.89
2023-06-03T13:39:35.080Z,24.78
2023-06-03T13:44:36.732Z,24.81
2023-06-03T13:49:38.331Z,25.00
2023-06-03T13:54:39.853Z,25.11
2023-06-03T13:59:41.450Z,25.04
2023-06-03T14:04:43.969Z,25.01
2023-06-03T14:09:45.694Z,24.97
2023-06-03T14:14:47.317Z,25.08
2023-06-03T14:19:48.871Z,25.19
2023-06-03T14:24:50.455Z,24.94
2023-06-03T14:29:52.062Z,24.52
2023-06-03T14:34:53.626Z,24.44
2023-06-03T14:39:55.236Z,24.72
2023-06-03T14:45:01.153Z,24.81
2023-06-03T14:50:03.642Z,24.84
2023-06-03T14:55:09.596Z,25.03
2023-06-03T15:00:12.022Z,25.05
2023-06-03T15:05:13.682Z,25.08
2023-06-03T15:10:15.389Z,25.11
2023-06-03T15:15:16.947Z,24.89
2023-06-03T15:20:18.563Z,24.40
2023-06-03T15:25:20.363Z,24.34
2023-06-03T15:30:23.104Z,24.41
2023-06-03T15:35:24.870Z,24.59
2023-06-03T15:40:26.432Z,24.65
2023-06-03T15:45:27.965Z,24.70
2023-06-03T15:50:29.648Z,24.68
2023-06-03T15:55:31.175Z,24.62
2023-06-03T16:00:32.885Z,24.64
2023-06-03T16:05:34.608Z,24.54
2023-06-03T16:10:36.972Z,24.54
2023-06-03T16:15:39.164Z,24.48
2023-06-03T16:20:40.979Z,24.47
2023-06-03T16:25:44.032Z,24.38
2023-06-03T16:30:45.603Z,24.29
2023-06-03T16:35:47.141Z,24.28
2023-06-03T16:40:48.969Z,24.22
2023-06-03T16:45:50.828Z,24.19
2023-06-03T16:50:52.430Z,24.18
2023-06-03T16:55:53.978Z,24.11
2023-06-03T17:00:55.938Z,23.99
2023-06-03T17:05:57.491Z,23.92
2023-06-03T17:10:59.031Z,23.86
2023-06-03T17:16:00.664Z,23.73
2023-06-03T17:21:02.394Z,23.68
2023-06-03T17:26:04.087Z,23.64
2023-06-03T17:31:05.850Z,23.54
2023-06-03T17:36:08.182Z,23.48
2023-06-03T17:41:09.744Z,23.37
2023-06-03T17:46:12.088Z,23.29
2023-06-03T17:51:13.799Z,23.22
2023-06-03T17:56:15.450Z,23.15
2023-06-03T18:01:16.993Z,23.07
2023-06-03T18:06:19.547Z,23.01
2023-06-03T18:11:22.388Z,22.90
2023-06-03T18:16:23.977Z,22.83
2023-06-03T18:21:25.580Z,22.83
2023-06-03T18:26:29.122Z,22.67
2023-06-03T18:31:31.142Z,22.43
2023-06-03T18:36:32.870Z,22.29
2023-06-03T18:41:34.423Z,22.12
2023-06-03T18:46:36.346Z,21.92
2023-06-03T18:51:38.799Z,21.74
2023-06-03T18:56:41.306Z,21.55
2023-06-03T19:01:43.268Z,21.42
2023-06-03T19:06:44.884Z,21.23
2023-06-03T19:11:46.476Z,20.96
2023-06-03T19:16:47.982Z,20.72
2023-06-03T19:21:51.833Z,20.50
2023-06-03T19:26:53.341Z,20.18
2023-06-03T19:31:55.141Z,19.78
2023-06-03T19:36:57.508Z,19.56
2023-06-03T19:41:59.023Z,19.53
2023-06-03T19:47:00.743Z,19.27
2023-06-03T19:52:02.360Z,19.15
2023-06-03T19:57:08.549Z,18.92
2023-06-03T20:02:10.098Z,18.62
2023-06-03T20:07:12.759Z,18.47
2023-06-03T20:12:14.681Z,18.37
2023-06-03T20:17:17.771Z,18.29
2023-06-03T20:22:20.655Z,18.11
2023-06-03T20:27:22.555Z,17.90
2023-06-03T20:32:24.313Z,17.69
2023-06-03T20:37:25.913Z,17.52
2023-06-03T20:42:27.476Z,17.45
2023-06-03T20:47:29.021Z,17.43
2023-06-03T20:52:30.563Z,17.52
2023-06-03T20:57:32.336Z,17.67
2023-06-03T21:02:34.075Z,17.82
2023-06-03T21:07:36.047Z,17.76
2023-06-03T21:12:38.001Z,17.64
2023-06-03T21:17:39.593Z,17.46
2023-06-03T21:22:41.389Z,17.19
2023-06-03T21:27:43.672Z,16.98
2023-06-03T21:32:45.550Z,16.76
2023-06-03T21:37:47.142Z,16.67
2023-06-03T21:42:48.681Z,16.59
2023-06-03T21:47:50.480Z,16.50
2023-06-03T21:52:52.022Z,16.35
2023-06-03T21:57:55.552Z,16.12
2023-06-03T22:02:57.350Z,15.86
2023-06-03T22:07:58.918Z,15.69
2023-06-03T22:13:01.085Z,15.60
2023-06-03T22:18:02.746Z,15.53
2023-06-03T22:23:07.520Z,15.37
2023-06-03T22:28:09.459Z,15.18
2023-06-03T22:33:11.039Z,15.01
2023-06-03T22:38:12.639Z,14.90
2023-06-03T22:43:14.305Z,14.67
2023-06-03T22:48:16.171Z,14.41
2023-06-03T22:53:17.944Z,14.23
2023-06-03T22:58:19.507Z,14.14
2023-06-03T23:03:21.299Z,14.07
2023-06-03T23:08:22.964Z,13.94
2023-06-03T23:13:24.477Z,13.77
2023-06-03T23:18:26.042Z,13.57
2023-06-03T23:23:27.689Z,13.50
2023-06-03T23:28:29.273Z,13.41
2023-06-03T23:33:30.876Z,13.23
2023-06-03T23:38:32.461Z,13.12
2023-06-03T23:43:34.003Z,13.09
2023-06-03T23:48:35.597Z,13.07
2023-06-03T23:53:37.189Z,13.02
2023-06-03T23:58:39.707Z,12.96
